logo
Search for airport 
image banner adimage banner adimage banner ad
image banner ad

ESSP - Norrkoping/Kungsangen

Located in Norrkoping, Sweden

ICAO - ESSP, IATA - NRK

Data provided by Airmate  

General information

Coordinates: N58°35'10" E16°14'47"
Elevation is 32 feet MSL.
Magnetic variation is +6.0° East
View others Airports in Östergötlands län

Operational data

Special qualification required
Current time UTC:
Current local time:
Weather
METAR: ESSP 140050Z AUTO 09004KT 7000 RA BKN003/// BKN009/// OVC016/// 08/07 Q1001
View NOTAMs / SUP AIP / TFR affecting this airport [VIEW]
Communications frequencies: [VIEW]

Runways:

RWY identifierQFULength (ft)Width (ft)SurfaceLDA (ft)
11116°1969115GRASS1969
29296°1969115GRASS1969
0991°7234148ASPH7234
27271°7234148ASPH7234

Airport contact information

Address: Norrkoping Sweden

Other aviation service providers

Flight schools

Kungsair Training Ab

Kungsair Training Ab
mikael@kungsair.com+4611126160
+46707527536

Aviation club (not for profit)

Norrköpings Automobil- Och Flygklubb

Norrköpings Automobil- Och Flygklubb
info@nafk.se+4611131561

Swedish Ultraflyers

Swedish Ultraflyers

Satellite view of ESSP